Time;durP1;ratioP1;P1;durP2;ratioP2;P2;SDS_P1;SDS_P2;PMS_P1;PMS_P2;Temp;Humidity;BMP_temperature;BMP_pressure;BME280_temperature;BME280_humidity;BME280_pressure;Samples;Min_cycle;Max_cycle;Signal;HPM_P1;HPM_P2
2022/10/18 00:01:02;;;;;;;7.70;4.80;;;;;;;6.12;nan;-23987.81;5073787;28;20174;-77
2022/10/18 00:03:28;;;;;;;8.60;4.30;;;;;;;6.33;nan;-23993.50;5091844;28;20180;-77
2022/10/18 00:05:53;;;;;;;8.73;4.80;;;;;;;6.03;nan;-23985.13;5091972;28;20173;-74
2022/10/18 00:08:20;;;;;;;7.67;4.67;;;;;;;6.20;nan;-23989.97;5073626;28;20277;-77
2022/10/18 00:10:45;;;;;;;6.70;4.23;;;;;;;5.68;nan;-23975.47;5091777;28;20223;-79
2022/10/18 00:13:11;;;;;;;7.27;4.53;;;;;;;6.12;nan;-23987.81;5073186;28;20280;-75
2022/10/18 00:15:36;;;;;;;8.30;5.07;;;;;;;5.81;nan;-23979.00;5073463;28;20542;-77
2022/10/18 00:18:02;;;;;;;9.47;5.17;;;;;;;5.86;nan;-23980.28;5092490;28;20173;-78
2022/10/18 00:20:28;;;;;;;6.80;4.30;;;;;;;5.87;nan;-23980.72;5091985;28;20570;-73
2022/10/18 00:22:53;;;;;;;5.97;4.43;;;;;;;6.00;nan;-23984.41;5091301;28;20591;-75
2022/10/18 00:25:19;;;;;;;14.57;4.90;;;;;;;6.04;nan;-23985.56;5091584;28;20179;-74
2022/10/18 00:27:45;;;;;;;6.47;4.40;;;;;;;5.23;nan;-23962.81;5090394;28;20183;-75
2022/10/18 00:30:10;;;;;;;7.13;4.60;;;;;;;5.92;nan;-23982.00;5091600;28;20173;-75
2022/10/18 00:32:37;;;;;;;7.20;4.50;;;;;;;5.75;nan;-23977.44;5092069;28;20581;-77
2022/10/18 00:35:04;;;;;;;4.47;3.53;;;;;;;5.45;nan;-23968.78;5073579;28;20600;-73
2022/10/18 00:37:30;;;;;;;9.70;4.63;;;;;;;5.44;nan;-23968.50;5091737;28;20181;-74
2022/10/18 00:39:55;;;;;;;8.33;4.93;;;;;;;5.38;nan;-23966.78;5092223;28;20732;-79
2022/10/18 00:42:24;;;;;;;10.23;4.93;;;;;;;5.58;nan;-23972.47;5091463;28;20181;-72
2022/10/18 00:44:49;;;;;;;6.03;3.90;;;;;;;5.83;nan;-23979.59;5092541;28;20222;-77
2022/10/18 00:47:16;;;;;;;10.00;4.33;;;;;;;5.79;nan;-23978.44;5093035;28;20174;-75
2022/10/18 00:49:50;;;;;;;5.73;3.40;;;;;;;5.37;nan;-23966.50;5074010;28;20173;-76
2022/10/18 00:52:28;;;;;;;6.97;3.93;;;;;;;5.71;nan;-23976.16;5091905;28;20198;-75
2022/10/18 00:54:55;;;;;;;6.83;4.17;;;;;;;5.67;nan;-23975.03;5091331;28;20169;-75
2022/10/18 00:57:21;;;;;;;8.53;4.80;;;;;;;5.42;nan;-23968.06;5091598;28;20242;-75
2022/10/18 00:59:47;;;;;;;5.53;4.17;;;;;;;5.38;nan;-23966.94;5091791;28;20223;-76
2022/10/18 01:02:17;;;;;;;9.27;4.07;;;;;;;5.46;nan;-23969.06;5073435;28;20187;-77
2022/10/18 01:04:43;;;;;;;5.87;3.80;;;;;;;5.65;nan;-23974.59;5091709;28;20245;-78
2022/10/18 01:07:39;;;;;;;5.20;3.87;;;;;;;5.22;nan;-23962.53;5073620;28;20437;-77
2022/10/18 01:10:27;;;;;;;8.63;3.70;;;;;;;5.13;nan;-23959.97;5091482;28;20244;-73
2022/10/18 01:13:01;;;;;;;7.23;3.87;;;;;;;5.55;nan;-23971.75;5091869;28;20236;-77
2022/10/18 01:15:38;;;;;;;6.83;4.93;;;;;;;5.57;nan;-23972.19;5073260;28;20199;-76
2022/10/18 01:18:22;;;;;;;5.53;3.67;;;;;;;5.48;nan;-23969.63;5073690;28;20298;-77
2022/10/18 01:20:58;;;;;;;7.43;4.30;;;;;;;5.41;nan;-23967.66;5091376;28;20188;-78
2022/10/18 01:23:38;;;;;;;6.27;4.03;;;;;;;5.40;nan;-23967.50;5090789;28;20239;-76
2022/10/18 01:26:38;;;;;;;8.33;5.07;;;;;;;5.48;nan;-23969.78;5098482;28;20169;-73
2022/10/18 01:29:50;;;;;;;6.70;4.00;;;;;;;5.54;nan;-23971.34;5079639;28;20290;-76
2022/10/18 01:32:21;;;;;;;6.20;3.70;;;;;;;5.48;nan;-23969.63;4989214;28;20211;-77
2022/10/18 01:34:49;;;;;;;7.83;4.50;;;;;;;5.31;nan;-23964.94;4989362;28;20181;-74
2022/10/18 01:37:17;;;;;;;5.33;3.50;;;;;;;5.09;nan;-23958.81;5047946;28;20239;-76
2022/10/18 01:39:46;;;;;;;6.53;4.33;;;;;;;5.36;nan;-23966.22;5090745;28;20173;-75
2022/10/18 01:42:14;;;;;;;5.90;3.80;;;;;;;5.30;nan;-23964.81;5090955;28;20577;-74
2022/10/18 01:44:41;;;;;;;9.47;4.50;;;;;;;4.88;nan;-23952.84;5090987;28;20196;-73
2022/10/18 01:47:10;;;;;;;11.70;5.70;;;;;;;5.17;nan;-23960.97;5091367;28;20573;-74
2022/10/18 01:49:36;;;;;;;8.20;3.97;;;;;;;4.67;nan;-23947.03;5094577;28;20201;-77
2022/10/18 01:52:01;;;;;;;10.17;4.53;;;;;;;5.03;nan;-23956.97;5094746;28;20265;-75
2022/10/18 01:54:33;;;;;;;6.63;3.43;;;;;;;4.88;nan;-23952.84;5095221;28;20234;-78
2022/10/18 01:57:31;;;;;;;5.23;3.37;;;;;;;4.94;nan;-23954.41;5095041;28;20252;-74
2022/10/18 01:59:59;;;;;;;6.67;3.20;;;;;;;4.89;nan;-23953.13;5094913;28;20634;-74
2022/10/18 02:03:17;;;;;;;7.00;4.07;;;;;;;4.90;nan;-23953.44;5076399;28;20183;-75
2022/10/18 02:06:00;;;;;;;6.37;3.27;;;;;;;4.88;nan;-23952.84;5087743;28;20197;-75
2022/10/18 02:08:44;;;;;;;7.17;3.73;;;;;;;4.91;nan;-23953.72;5094301;28;20597;-77
2022/10/18 02:11:16;;;;;;;4.87;4.10;;;;;;;4.99;nan;-23955.84;5076092;28;20177;-73
2022/10/18 02:13:47;;;;;;;6.37;3.77;;;;;;;4.99;nan;-23956.00;5076094;28;20205;-75
2022/10/18 02:16:17;;;;;;;6.17;3.67;;;;;;;4.81;nan;-23950.84;5094445;28;20169;-76
2022/10/18 02:18:56;;;;;;;5.37;3.17;;;;;;;5.12;nan;-23959.53;5094844;28;20256;-78
2022/10/18 02:21:24;;;;;;;7.73;3.90;;;;;;;5.28;nan;-23964.22;5094469;28;20173;-78
2022/10/18 02:23:51;;;;;;;6.53;4.27;;;;;;;5.23;nan;-23962.66;5093709;28;20699;-76
2022/10/18 02:26:16;;;;;;;5.20;3.53;;;;;;;5.21;nan;-23962.25;5094158;28;20176;-74
2022/10/18 02:28:42;;;;;;;9.57;4.00;;;;;;;5.06;nan;-23957.97;5093933;28;20169;-74
2022/10/18 02:31:32;;;;;;;7.53;4.57;;;;;;;5.15;nan;-23960.53;5094171;28;20177;-78
2022/10/18 02:34:34;;;;;;;5.83;3.37;;;;;;;5.04;nan;-23957.41;5094097;28;20581;-77
2022/10/18 02:37:00;;;;;;;4.27;3.53;;;;;;;4.54;nan;-23943.31;5076633;28;20276;-74
2022/10/18 02:39:29;;;;;;;6.67;3.57;;;;;;;4.76;nan;-23949.59;5093864;28;20174;-76
2022/10/18 02:41:56;;;;;;;5.87;3.43;;;;;;;4.90;nan;-23953.44;5075235;28;20185;-76
2022/10/18 02:44:22;;;;;;;6.70;3.63;;;;;;;4.87;nan;-23952.72;5093970;28;20169;-78
2022/10/18 02:46:47;;;;;;;7.03;3.80;;;;;;;4.89;nan;-23953.13;5093767;28;20176;-78
2022/10/18 02:49:13;;;;;;;7.87;2.70;;;;;;;4.42;nan;-23940.03;5094104;28;20181;-78
2022/10/18 02:51:38;;;;;;;4.47;3.77;;;;;;;4.73;nan;-23948.59;5093146;28;20252;-78
2022/10/18 02:54:04;;;;;;;6.37;3.80;;;;;;;4.80;nan;-23950.72;5093349;28;20199;-74
2022/10/18 02:56:30;;;;;;;6.17;2.80;;;;;;;4.74;nan;-23949.00;5093456;28;20173;-75
2022/10/18 02:58:55;;;;;;;4.43;3.17;;;;;;;4.40;nan;-23939.34;5075215;28;20181;-77
2022/10/18 03:01:20;;;;;;;4.90;2.90;;;;;;;4.41;nan;-23939.75;5093740;28;20248;-74
2022/10/18 03:03:46;;;;;;;5.83;3.77;;;;;;;4.84;nan;-23951.72;5093905;28;20176;-79
2022/10/18 03:06:11;;;;;;;4.07;3.23;;;;;;;4.45;nan;-23940.91;5093287;28;20286;-78
2022/10/18 03:08:37;;;;;;;4.83;3.10;;;;;;;4.58;nan;-23944.47;5093458;28;20299;-73
2022/10/18 03:11:02;;;;;;;4.73;3.50;;;;;;;4.42;nan;-23939.91;5075036;28;20181;-79
2022/10/18 03:13:28;;;;;;;7.47;3.23;;;;;;;4.44;nan;-23940.47;5093272;28;20196;-78
2022/10/18 03:15:53;;;;;;;5.47;3.30;;;;;;;4.44;nan;-23940.47;5093716;28;20185;-76
2022/10/18 03:18:18;;;;;;;6.10;3.90;;;;;;;4.51;nan;-23942.31;5093575;28;20177;-75
2022/10/18 03:20:44;;;;;;;4.70;3.20;;;;;;;4.21;nan;-23933.94;5092673;28;20170;-78
2022/10/18 03:23:09;;;;;;;5.33;3.20;;;;;;;4.61;nan;-23945.16;5088205;28;20309;-75
2022/10/18 03:25:34;;;;;;;6.53;3.40;;;;;;;4.51;nan;-23942.31;5077458;28;20322;-75
2022/10/18 03:28:00;;;;;;;5.53;3.83;;;;;;;4.53;nan;-23943.03;5066041;28;20174;-77
2022/10/18 03:30:26;;;;;;;3.53;2.97;;;;;;;4.38;nan;-23938.91;5078159;28;20223;-77
2022/10/18 03:32:53;;;;;;;5.17;3.03;;;;;;;4.35;nan;-23937.91;5064750;28;20317;-75
2022/10/18 03:35:18;;;;;;;5.23;3.37;;;;;;;3.96;nan;-23926.94;5076767;28;20193;-74
2022/10/18 03:37:44;;;;;;;5.70;3.43;;;;;;;4.04;nan;-23929.22;5082054;28;20197;-78
2022/10/18 03:40:10;;;;;;;6.20;3.17;;;;;;;3.97;nan;-23927.38;5076715;28;20185;-76
2022/10/18 03:42:35;;;;;;;3.93;2.63;;;;;;;4.37;nan;-23938.47;5078868;28;20268;-78
2022/10/18 03:45:01;;;;;;;7.10;2.53;;;;;;;4.34;nan;-23937.63;5066981;28;20248;-74
2022/10/18 03:47:26;;;;;;;6.27;2.80;;;;;;;4.02;nan;-23928.50;5079635;28;20189;-75
2022/10/18 03:49:52;;;;;;;4.67;2.70;;;;;;;3.99;nan;-23927.81;5079165;28;20182;-78
2022/10/18 03:52:17;;;;;;;3.33;2.80;;;;;;;3.99;nan;-23934.63;5087562;28;20220;-71
2022/10/18 03:54:42;;;;;;;3.20;2.73;;;;;;;4.27;nan;-23935.78;5091151;28;20181;-74
2022/10/18 03:57:08;;;;;;;3.33;2.43;;;;;;;3.93;nan;-23926.22;5077708;28;20178;-78
2022/10/18 03:59:33;;;;;;;4.63;3.00;;;;;;;4.05;nan;-23929.50;5077283;28;20185;-78
2022/10/18 04:01:59;;;;;;;4.60;3.17;;;;;;;4.03;nan;-23928.78;5076793;28;21336;-76
2022/10/18 04:04:24;;;;;;;4.77;3.37;;;;;;;4.41;nan;-23939.75;5078285;28;20315;-76
2022/10/18 04:06:50;;;;;;;6.33;3.77;;;;;;;4.36;nan;-23938.34;5077252;28;20184;-78
2022/10/18 04:09:15;;;;;;;3.97;2.60;;;;;;;4.04;nan;-23929.22;5079482;28;20564;-78
2022/10/18 04:11:40;;;;;;;7.27;3.70;;;;;;;4.31;nan;-23936.91;5077122;28;20189;-76
2022/10/18 04:14:06;;;;;;;5.77;3.53;;;;;;;4.48;nan;-23941.47;5077215;28;20198;-77
2022/10/18 04:16:31;;;;;;;4.20;2.90;;;;;;;4.27;nan;-23935.63;5077704;28;20217;-75
2022/10/18 04:18:57;;;;;;;3.97;2.97;;;;;;;3.98;nan;-23927.66;5076574;28;20685;-79
2022/10/18 04:21:23;;;;;;;5.23;3.00;;;;;;;4.04;nan;-23929.22;5070403;28;20216;-75
2022/10/18 04:23:49;;;;;;;7.20;3.20;;;;;;;4.40;nan;-23939.47;5102375;28;20256;-72
2022/10/18 04:26:16;;;;;;;4.07;2.90;;;;;;;4.48;nan;-23941.63;5098156;28;20182;-77
2022/10/18 04:28:42;;;;;;;5.70;3.60;;;;;;;4.38;nan;-23938.91;5074443;28;20173;-76
2022/10/18 04:31:08;;;;;;;4.80;3.33;;;;;;;4.37;nan;-23938.63;5092682;28;20178;-75
2022/10/18 04:33:34;;;;;;;5.03;2.87;;;;;;;4.61;nan;-23945.16;5090143;28;20715;-76
2022/10/18 04:35:59;;;;;;;4.17;2.80;;;;;;;4.23;nan;-23934.50;5091564;28;20181;-78
2022/10/18 04:38:25;;;;;;;5.27;3.60;;;;;;;4.22;nan;-23934.22;5084922;28;20180;-73
2022/10/18 04:40:50;;;;;;;7.83;3.50;;;;;;;4.47;nan;-23941.19;5098831;28;20230;-79
2022/10/18 04:43:16;;;;;;;6.00;3.47;;;;;;;4.35;nan;-23938.06;5091423;28;20184;-76
2022/10/18 04:45:44;;;;;;;6.17;3.13;;;;;;;4.41;nan;-23939.63;5073330;28;20184;-79
2022/10/18 04:48:09;;;;;;;7.50;4.07;;;;;;;4.07;nan;-23930.06;5090040;28;20656;-79
2022/10/18 04:50:34;;;;;;;4.50;3.50;;;;;;;4.28;nan;-23936.06;5091910;28;20180;-80
2022/10/18 04:53:00;;;;;;;5.23;3.80;;;;;;;4.29;nan;-23936.19;5073393;28;20193;-78
2022/10/18 04:55:25;;;;;;;6.90;3.43;;;;;;;4.29;nan;-23936.34;5091359;28;20208;-77
2022/10/18 04:57:52;;;;;;;7.30;3.53;;;;;;;4.12;nan;-23931.34;5073406;28;20597;-78
2022/10/18 05:00:17;;;;;;;4.23;2.93;;;;;;;4.53;nan;-23942.91;5090294;28;20179;-78
2022/10/18 05:02:43;;;;;;;4.70;3.90;;;;;;;4.53;nan;-23942.91;5091364;28;20169;-80
2022/10/18 05:05:08;;;;;;;5.43;2.93;;;;;;;4.32;nan;-23937.06;5091414;28;20178;-80
2022/10/18 05:07:34;;;;;;;5.53;3.23;;;;;;;4.16;nan;-23932.63;5090033;28;20170;-80
2022/10/18 05:09:59;;;;;;;5.40;3.70;;;;;;;4.47;nan;-23941.19;5073133;28;20185;-76
2022/10/18 05:12:24;;;;;;;7.83;3.77;;;;;;;4.89;nan;-23953.28;5087059;28;20833;-78
2022/10/18 05:14:50;;;;;;;5.33;3.83;;;;;;;4.57;nan;-23944.03;5095757;28;20185;-77
2022/10/18 05:17:15;;;;;;;3.87;3.23;;;;;;;4.90;nan;-23953.44;5091101;28;20246;-76
2022/10/18 05:19:40;;;;;;;6.70;3.30;;;;;;;5.19;nan;-23961.66;5072144;28;20514;-78
2022/10/18 05:22:06;;;;;;;6.03;3.53;;;;;;;5.28;nan;-23964.09;5091261;28;20264;-76
2022/10/18 05:24:32;;;;;;;4.97;3.03;;;;;;;5.32;nan;-23965.22;5073156;28;20249;-78
2022/10/18 05:26:58;;;;;;;5.07;3.43;;;;;;;5.33;nan;-23965.50;5072748;28;20188;-74
2022/10/18 05:29:24;;;;;;;6.27;3.83;;;;;;;5.61;nan;-23973.34;5075026;28;20177;-75
2022/10/18 05:31:49;;;;;;;7.63;4.13;;;;;;;5.60;nan;-23973.19;5073812;28;20216;-75
2022/10/18 05:34:16;;;;;;;6.40;4.10;;;;;;;5.79;nan;-23978.59;5075295;28;20292;-74
2022/10/18 05:36:42;;;;;;;4.90;2.90;;;;;;;5.60;nan;-23973.03;5072830;28;20185;-74
2022/10/18 05:39:07;;;;;;;5.97;3.77;;;;;;;5.62;nan;-23973.75;5073346;28;20660;-73
2022/10/18 05:41:33;;;;;;;6.50;3.47;;;;;;;5.92;nan;-23982.16;5073545;28;20232;-76
2022/10/18 05:44:03;;;;;;;5.23;2.87;;;;;;;6.25;nan;-23991.22;5074927;28;20181;-79
2022/10/18 05:46:29;;;;;;;5.50;3.80;;;;;;;6.34;nan;-23993.78;5074696;28;20181;-76
2022/10/18 05:48:54;;;;;;;6.37;4.00;;;;;;;6.43;nan;-23996.34;5075644;28;20174;-79
2022/10/18 05:51:20;;;;;;;6.23;3.67;;;;;;;6.24;nan;-23991.09;5076515;28;20302;-76
2022/10/18 05:53:45;;;;;;;7.00;3.97;;;;;;;6.60;nan;-24001.31;5074151;28;20217;-78
2022/10/18 05:56:11;;;;;;;6.13;3.80;;;;;;;6.82;nan;-24007.28;5074668;28;20196;-76
2022/10/18 05:58:36;;;;;;;7.13;4.00;;;;;;;6.91;nan;-24009.97;5077360;28;20177;-79
2022/10/18 06:01:04;;;;;;;4.80;3.27;;;;;;;7.13;nan;-24016.06;5075205;28;20185;-79
2022/10/18 06:03:29;;;;;;;5.50;3.60;;;;;;;6.93;nan;-24010.41;5077272;28;20166;-77
2022/10/18 06:06:14;;;;;;;7.57;4.10;;;;;;;7.29;nan;-24020.59;5076212;28;20171;-76
2022/10/18 06:08:40;;;;;;;9.43;4.30;;;;;;;7.48;nan;-24025.84;5074761;28;20185;-77
2022/10/18 06:11:14;;;;;;;6.80;4.27;;;;;;;7.72;nan;-24032.66;5075105;28;20182;-80
2022/10/18 06:13:45;;;;;;;6.27;4.20;;;;;;;7.68;nan;-24031.38;5074787;28;20185;-76
2022/10/18 06:16:13;;;;;;;6.77;3.70;;;;;;;7.60;nan;-24029.25;5075463;28;20170;-78
2022/10/18 06:18:39;;;;;;;8.27;4.67;;;;;;;7.82;nan;-24035.47;5075725;28;20185;-76
2022/10/18 06:21:04;;;;;;;5.40;3.50;;;;;;;8.14;nan;-24044.28;5074442;28;20182;-79
2022/10/18 06:23:30;;;;;;;7.40;4.13;;;;;;;8.18;nan;-24045.41;5072722;28;20290;-76
2022/10/18 06:26:07;;;;;;;14.00;5.00;;;;;;;8.55;nan;-24055.88;5074139;28;20540;-77
2022/10/18 06:28:36;;;;;;;8.03;4.77;;;;;;;8.54;nan;-24055.59;5073510;28;20178;-75
2022/10/18 06:31:03;;;;;;;4.07;2.90;;;;;;;8.97;nan;-24067.47;5074113;28;20158;-77
2022/10/18 06:33:34;;;;;;;6.40;3.57;;;;;;;9.20;nan;-24074.00;5074843;28;20198;-83
2022/10/18 06:36:05;;;;;;;6.43;3.63;;;;;;;9.11;nan;-24071.59;5077655;28;20736;-76
2022/10/18 06:38:30;;;;;;;7.73;4.43;;;;;;;8.98;nan;-24067.91;5074808;28;20213;-78
2022/10/18 06:40:56;;;;;;;6.83;3.67;;;;;;;9.42;nan;-24080.22;5075821;28;20192;-79
2022/10/18 06:43:22;;;;;;;5.47;3.50;;;;;;;9.34;nan;-24077.94;5077195;28;20178;-75
2022/10/18 06:45:48;;;;;;;6.10;3.63;;;;;;;9.17;nan;-24073.13;5078651;28;20179;-78
2022/10/18 06:48:14;;;;;;;5.10;3.20;;;;;;;9.37;nan;-24078.78;5077961;28;20205;-76
2022/10/18 06:50:40;;;;;;;5.03;3.37;;;;;;;9.39;nan;-24079.34;5077485;28;20213;-78
2022/10/18 06:53:07;;;;;;;6.67;3.50;;;;;;;9.60;nan;-24085.28;5079111;28;20194;-77
2022/10/18 06:55:33;;;;;;;5.73;3.47;;;;;;;9.48;nan;-24081.91;5075805;28;20261;-78
2022/10/18 06:58:00;;;;;;;4.67;3.37;;;;;;;9.50;nan;-24082.47;5077426;28;20166;-76
2022/10/18 07:00:26;;;;;;;8.80;4.00;;;;;;;9.55;nan;-24083.88;5073416;28;20169;-79
2022/10/18 07:02:51;;;;;;;7.53;4.37;;;;;;;9.94;nan;-24094.63;5076699;28;20173;-78
2022/10/18 07:05:17;;;;;;;5.77;3.60;;;;;;;10.03;nan;-24097.31;5072332;28;20199;-78
2022/10/18 07:07:43;;;;;;;6.50;4.10;;;;;;;10.03;nan;-24097.16;5072141;28;20177;-77
2022/10/18 07:10:09;;;;;;;8.07;4.67;;;;;;;10.16;nan;-24100.84;5072962;28;20276;-78
2022/10/18 07:12:34;;;;;;;5.27;4.00;;;;;;;10.53;nan;-24111.13;5074033;28;20202;-78
2022/10/18 07:15:00;;;;;;;4.23;3.40;;;;;;;10.61;nan;-24113.53;5074221;28;20299;-79
2022/10/18 07:17:25;;;;;;;5.63;3.50;;;;;;;10.58;nan;-24112.69;5075889;28;20282;-75
2022/10/18 07:19:51;;;;;;;6.05;3.85;;;;;;;10.71;nan;-24116.06;5079427;28;20607;-77
2022/10/18 07:22:16;;;;;;;6.97;4.30;;;;;;;10.40;nan;-24107.63;5073824;28;20251;-78
2022/10/18 07:24:41;;;;;;;6.90;4.10;;;;;;;11.06;nan;-24125.94;5072775;28;20221;-76
2022/10/18 07:27:08;;;;;;;7.03;3.90;;;;;;;11.44;nan;-24136.66;5073947;28;20265;-77
2022/10/18 07:29:37;;;;;;;11.43;3.88;;;;;;;11.45;nan;-24136.94;5074094;28;20200;-75
2022/10/18 07:32:04;;;;;;;6.40;4.18;;;;;;;11.25;nan;-24131.31;5075364;28;20174;-79
2022/10/18 07:34:29;;;;;;;8.73;4.32;;;;;;;11.69;nan;-24143.41;5075271;28;20620;-77
2022/10/18 07:36:55;;;;;;;8.48;4.35;;;;;;;11.48;nan;-24137.78;5072243;28;20271;-77
2022/10/18 07:39:20;;;;;;;6.43;3.97;;;;;;;11.77;nan;-24145.69;5077420;28;20185;-77
2022/10/18 07:41:46;;;;;;;5.20;3.42;;;;;;;11.78;nan;-24145.97;5070882;28;20186;-77
2022/10/18 07:44:11;;;;;;;5.70;3.88;;;;;;;11.97;nan;-24151.16;5097480;28;20181;-75
2022/10/18 07:46:38;;;;;;;6.75;4.00;;;;;;;12.38;nan;-24162.72;5089933;28;20215;-76
2022/10/18 07:49:03;;;;;;;6.95;3.88;;;;;;;12.56;nan;-24167.78;5094883;28;20178;-79
2022/10/18 07:51:31;;;;;;;5.45;3.35;;;;;;;12.81;nan;-24174.81;5078585;28;20196;-80
2022/10/18 07:53:57;;;;;;;5.35;3.55;;;;;;;12.78;nan;-24173.97;5092522;28;20303;-79
2022/10/18 07:56:23;;;;;;;5.03;3.28;;;;;;;13.07;nan;-24181.97;5080573;28;20566;-79
2022/10/18 07:58:51;;;;;;;4.15;3.20;;;;;;;13.14;nan;-24183.81;5073710;28;20173;-76
2022/10/18 08:01:17;;;;;;;10.52;3.70;;;;;;;12.94;nan;-24178.31;5089819;28;20635;-77
2022/10/18 08:03:43;;;;;;;9.07;4.22;;;;;;;13.15;nan;-24184.22;5072844;28;20200;-80
2022/10/18 08:06:10;;;;;;;8.00;4.10;;;;;;;13.42;nan;-24191.66;5089937;28;20182;-78
2022/10/18 08:08:38;;;;;;;8.70;3.80;;;;;;;13.27;nan;-24187.47;5090546;28;20174;-79
2022/10/18 08:11:08;;;;;;;10.68;4.72;;;;;;;13.62;nan;-24197.16;5074262;28;20649;-78
2022/10/18 08:13:34;;;;;;;5.72;3.42;;;;;;;13.20;nan;-24185.63;5074300;28;20206;-77
2022/10/18 08:16:09;;;;;;;6.88;4.00;;;;;;;14.04;nan;-24208.94;5090330;28;20196;-77
2022/10/18 08:18:36;;;;;;;5.70;3.60;;;;;;;14.29;nan;-24215.69;5090809;28;20261;-78
2022/10/18 08:21:11;;;;;;;5.28;3.38;;;;;;;14.18;nan;-24212.59;5076519;28;20295;-78
2022/10/18 08:23:37;;;;;;;10.75;3.42;;;;;;;14.53;nan;-24222.56;5092741;28;20221;-77
2022/10/18 08:26:05;;;;;;;5.45;3.55;;;;;;;14.58;nan;-24223.94;5091711;28;20181;-78
2022/10/18 08:28:31;;;;;;;4.85;3.55;;;;;;;14.81;nan;-24230.13;5091999;28;20181;-77
2022/10/18 08:31:01;;;;;;;8.05;4.20;;;;;;;14.84;nan;-24230.97;5091869;28;20178;-78
2022/10/18 08:33:27;;;;;;;5.53;3.80;;;;;;;14.70;nan;-24227.03;5076089;28;20204;-82
2022/10/18 08:35:57;;;;;;;6.63;4.03;;;;;;;14.48;nan;-24221.16;5093278;28;20261;-78
2022/10/18 08:38:23;;;;;;;6.88;4.03;;;;;;;14.61;nan;-24224.50;5094372;28;20189;-76
2022/10/18 08:40:49;;;;;;;6.13;3.75;;;;;;;14.54;nan;-24222.69;5078750;28;20163;-78
2022/10/18 08:43:33;;;;;;;8.30;4.93;;;;;;;14.46;nan;-24220.59;5092113;28;20178;-78
2022/10/18 08:45:59;;;;;;;9.50;4.15;;;;;;;14.54;nan;-24222.69;5076261;28;20188;-77
2022/10/18 08:48:33;;;;;;;9.80;3.95;;;;;;;14.54;nan;-24222.69;5076531;28;20237;-76
2022/10/18 08:50:59;;;;;;;8.95;3.58;;;;;;;14.66;nan;-24225.91;5075804;28;20188;-77
2022/10/18 08:53:53;;;;;;;6.18;3.35;;;;;;;14.83;nan;-24230.69;5077212;28;20266;-75
2022/10/18 08:56:22;;;;;;;5.15;3.25;;;;;;;15.35;nan;-24245.13;5092404;28;20192;-80
2022/10/18 08:58:49;;;;;;;4.78;3.55;;;;;;;15.35;nan;-24245.13;5078081;28;20315;-79
2022/10/18 09:01:27;;;;;;;7.70;3.50;;;;;;;15.70;nan;-24254.91;5077411;28;20175;-79
2022/10/18 09:04:08;;;;;;;8.75;3.72;;;;;;;15.89;nan;-24260.09;5091417;28;20166;-79
2022/10/18 09:06:46;;;;;;;5.28;3.28;;;;;;;16.09;nan;-24265.56;5091442;28;20178;-79
2022/10/18 09:09:40;;;;;;;4.78;3.80;;;;;;;16.00;nan;-24263.03;5092735;28;20269;-81
2022/10/18 09:12:17;;;;;;;4.60;3.22;;;;;;;16.27;nan;-24270.59;5077805;28;20173;-80
2022/10/18 09:15:00;;;;;;;4.90;3.15;;;;;;;15.65;nan;-24253.50;5092560;28;20502;-78
2022/10/18 09:17:44;;;;;;;6.32;3.70;;;;;;;15.95;nan;-24261.78;5078414;28;20612;-80
2022/10/18 09:20:30;;;;;;;6.22;3.90;;;;;;;16.03;nan;-24264.00;5075894;28;20212;-77
2022/10/18 09:22:55;;;;;;;4.65;3.10;;;;;;;16.21;nan;-24268.91;5092812;28;20713;-80
2022/10/18 09:25:31;;;;;;;8.95;4.07;;;;;;;16.02;nan;-24263.59;5076648;28;20169;-79
2022/10/18 09:28:28;;;;;;;5.28;3.25;;;;;;;16.34;nan;-24272.53;5077222;28;20253;-77
2022/10/18 09:31:22;;;;;;;9.23;3.85;;;;;;;16.21;nan;-24269.03;5075240;28;20174;-77
2022/10/18 09:34:07;;;;;;;7.97;3.28;;;;;;;16.22;nan;-24269.31;5072693;28;20233;-79
2022/10/18 09:36:37;;;;;;;6.00;3.20;;;;;;;16.17;nan;-24267.94;5075182;28;20182;-79
2022/10/18 09:39:15;;;;;;;5.75;3.47;;;;;;;16.67;nan;-24281.78;5075639;28;20189;-81
2022/10/18 09:41:52;;;;;;;7.28;3.42;;;;;;;16.79;nan;-24284.97;5076746;28;20185;-78
2022/10/18 09:44:20;;;;;;;5.78;3.42;;;;;;;16.55;nan;-24278.41;5074623;28;20609;-78
2022/10/18 09:46:56;;;;;;;5.40;3.35;;;;;;;16.83;nan;-24286.09;5091556;28;20678;-79
2022/10/18 09:49:25;;;;;;;4.22;3.22;;;;;;;17.16;nan;-24295.16;5074287;28;20185;-77
2022/10/18 09:51:52;;;;;;;7.38;3.08;;;;;;;17.19;nan;-24296.16;5072839;28;20194;-82
2022/10/18 09:54:31;;;;;;;4.97;3.33;;;;;;;17.27;nan;-24298.09;5089224;28;20213;-82
2022/10/18 09:57:43;;;;;;;4.45;3.10;;;;;;;17.41;nan;-24302.00;5090151;28;20170;-77
2022/10/18 10:00:20;;;;;;;6.55;3.33;;;;;;;17.51;nan;-24304.94;5013388;28;20191;-80
2022/10/18 10:02:46;;;;;;;5.75;3.50;;;;;;;17.39;nan;-24301.59;5013464;28;20164;-76
2022/10/18 10:05:13;;;;;;;7.20;3.50;;;;;;;17.15;nan;-24295.03;5048510;28;20182;-79
2022/10/18 10:07:44;;;;;;;4.13;3.20;;;;;;;17.36;nan;-24300.75;5091433;28;20182;-78
2022/10/18 10:10:20;;;;;;;5.10;3.17;;;;;;;17.41;nan;-24302.16;5098547;28;20196;-78
2022/10/18 10:12:45;;;;;;;8.05;3.35;;;;;;;17.65;nan;-24308.72;5078825;28;20193;-78
2022/10/18 10:15:19;;;;;;;5.88;3.45;;;;;;;17.64;nan;-24308.56;5079476;28;20231;-81
2022/10/18 10:18:00;;;;;;;4.63;3.10;;;;;;;18.09;nan;-24320.97;5080105;28;20178;-77
2022/10/18 10:20:35;;;;;;;5.10;3.20;;;;;;;18.28;nan;-24326.13;5078943;28;20166;-77
2022/10/18 10:23:13;;;;;;;5.93;3.47;;;;;;;18.02;nan;-24318.91;5083159;28;20285;-78
2022/10/18 10:25:41;;;;;;;5.93;2.97;;;;;;;18.17;nan;-24322.94;5082079;28;20173;-79
2022/10/18 10:28:19;;;;;;;4.72;3.10;;;;;;;17.59;nan;-24307.19;5097839;28;20181;-78
2022/10/18 10:30:45;;;;;;;5.72;3.38;;;;;;;17.79;nan;-24312.47;5100018;28;20173;-79
2022/10/18 10:33:30;;;;;;;5.18;3.03;;;;;;;18.06;nan;-24320.00;5082416;28;20294;-79
2022/10/18 10:36:02;;;;;;;4.80;3.10;;;;;;;18.01;nan;-24318.63;5080984;28;20226;-79
2022/10/18 10:38:29;;;;;;;4.18;3.08;;;;;;;18.21;nan;-24324.06;5098704;28;20216;-80
2022/10/18 10:40:55;;;;;;;5.53;3.38;;;;;;;18.13;nan;-24321.81;5098825;28;20173;-80
2022/10/18 10:43:35;;;;;;;4.47;3.15;;;;;;;18.13;nan;-24321.81;5081414;28;20169;-80
2022/10/18 10:46:07;;;;;;;5.93;3.30;;;;;;;18.26;nan;-24325.59;5099903;28;20161;-77
2022/10/18 10:48:44;;;;;;;5.72;2.90;;;;;;;18.18;nan;-24323.22;5101142;28;20166;-76
2022/10/18 10:51:10;;;;;;;4.72;2.88;;;;;;;18.42;nan;-24330.03;5099981;28;20252;-80
2022/10/18 10:54:04;;;;;;;5.15;3.10;;;;;;;18.42;nan;-24330.03;5099444;28;20265;-79
2022/10/18 10:56:34;;;;;;;4.10;2.85;;;;;;;18.57;nan;-24333.94;5095977;28;20181;-77
2022/10/18 10:59:08;;;;;;;4.93;3.13;;;;;;;17.94;nan;-24316.66;5098676;28;20185;-77
2022/10/18 11:01:35;;;;;;;4.13;2.67;;;;;;;17.86;nan;-24314.56;5099478;28;20154;-79
2022/10/18 11:04:28;;;;;;;4.03;2.78;;;;;;;18.25;nan;-24325.31;5080234;28;20547;-79
2022/10/18 11:07:12;;;;;;;3.75;2.58;;;;;;;17.89;nan;-24315.41;5097272;28;20209;-80
2022/10/18 11:09:48;;;;;;;3.30;2.80;;;;;;;18.11;nan;-24321.41;5080516;28;20193;-79
2022/10/18 11:12:23;;;;;;;5.07;2.80;;;;;;;18.66;nan;-24336.44;5079597;28;20203;-78
2022/10/18 11:14:58;;;;;;;5.15;2.40;;;;;;;18.70;nan;-24337.72;5098465;28;20226;-80
2022/10/18 11:17:34;;;;;;;4.95;3.10;;;;;;;18.97;nan;-24345.09;5095720;28;20230;-82
2022/10/18 11:20:06;;;;;;;7.05;3.00;;;;;;;19.33;nan;-24355.09;5094142;28;20206;-79
2022/10/18 11:22:52;;;;;;;5.38;3.05;;;;;;;19.37;nan;-24356.06;5075902;28;20278;-77
2022/10/18 11:25:21;;;;;;;4.28;2.90;;;;;;;19.49;nan;-24359.28;5070960;28;20620;-79
2022/10/18 11:28:03;;;;;;;4.22;2.97;;;;;;;19.59;nan;-24362.06;5097715;28;20207;-80
2022/10/18 11:31:03;;;;;;;6.85;2.50;;;;;;;19.42;nan;-24357.47;5096002;28;20197;-76
2022/10/18 11:33:50;;;;;;;3.22;2.20;;;;;;;19.42;nan;-24357.47;5012222;28;20207;-77
2022/10/18 11:37:00;;;;;;;3.40;2.45;;;;;;;19.79;nan;-24367.63;5087382;28;20260;-76
2022/10/18 11:39:49;;;;;;;6.32;2.38;;;;;;;19.79;nan;-24367.63;5070752;28;20642;-79
2022/10/18 11:42:36;;;;;;;3.35;2.28;;;;;;;19.96;nan;-24372.34;5092975;28;20586;-75
2022/10/18 11:45:21;;;;;;;3.30;2.40;;;;;;;20.14;nan;-24377.34;5076133;28;20560;-80
2022/10/18 11:48:24;;;;;;;5.47;2.47;;;;;;;20.13;nan;-24376.94;5075289;28;20283;-77
2022/10/18 11:51:13;;;;;;;4.53;2.65;;;;;;;19.89;nan;-24370.25;5074909;28;20604;-76
2022/10/18 11:54:00;;;;;;;4.07;2.70;;;;;;;19.46;nan;-24358.44;5074766;28;20668;-76
2022/10/18 11:56:50;;;;;;;5.00;2.53;;;;;;;19.17;nan;-24350.66;5093313;28;20173;-76
2022/10/18 11:59:36;;;;;;;3.40;2.28;;;;;;;19.13;nan;-24349.41;5075216;28;20252;-81
2022/10/18 12:02:39;;;;;;;2.53;2.10;;;;;;;19.04;nan;-24347.03;5095407;28;20162;-78
2022/10/18 12:05:06;;;;;;;2.42;2.00;;;;;;;19.17;nan;-24350.66;5097558;28;20554;-77